Monday, July 23, 2018, 6:08 AM GMT
Back to Local

CYWA, Petawawa, Ont.

Location: , , Canada Lat: 45.95
Local Time: 6:08 AM GMT ( 6:08 GMT) Lon: -77.317
Time Zone: GMT Elev: 426 ft

Show me the last for .
Show Decoded

2018-07-23 05:00 METAR CYWA 230500Z AUTO 04002KT 9SM BKN054 20/19 A3000 RMK SLP161 =
2018-07-23 04:00 METAR CYWA 230400Z AUTO 08002KT 9SM CLR 19/18 A3001 RMK SLP164 =
2018-07-23 03:00 METAR CYWA 230300Z AUTO 08002KT 9SM FEW036 FEW055 20/19 A3001 RMK SLP162 =
2018-07-23 02:00 METAR CYWA 230200Z AUTO 10005KT 9SM FEW041 BKN058 BKN066 21/19 A3001 RMK SLP163
                 =
2018-07-23 01:00 METAR CYWA 230100Z AUTO 07003KT 030V130 9SM FEW028 BKN064 21/19 A2999 RMK SLP158
                 =
2018-07-23 00:00 METAR CYWA 230000Z AUTO 08003KT 030V130 9SM OVC030 OVC074 21/19 A2997 RMK SLP152
                 =
2018-07-22 23:00 METAR CYWA 222300Z AUTO 05003KT 020V110 9SM FEW024 BKN038 BKN053 BKN080 21/19
                 A2995 RMK SLP145 =
2018-07-22 22:56 METAR CYWA 222256Z AUTO 08003KT 030V120 9SM FEW021 BKN038 BKN053 BKN080 22/19
                 A2995 =
2018-07-22 22:00 METAR CYWA 222200Z AUTO 07005KT 040V100 9SM OVC017 OVC065 22/19 A2994 RMK SLP141
                 =
2018-07-22 21:00 METAR CYWA 222100Z AUTO 08005KT 9SM OVC017 OVC050 21/18 A2993 RMK SLP138 =
2018-07-22 20:00 METAR CYWA 222000Z AUTO 10007KT 060V120 9SM OVC017 20/18 A2994 RMK SLP140 =
2018-07-22 19:19 METAR CYWA 221919Z AUTO 10008KT 9SM OVC017 OVC066 20/18 A2994 =
2018-07-22 19:00 METAR CYWA 221900Z AUTO 09007KT 9SM OVC013 OVC066 20/18 A2994 RMK SLP140 =
2018-07-22 18:31 METAR CYWA 221831Z AUTO 09004KT 070V130 9SM OVC011 20/18 A2994 =
2018-07-22 18:14 METAR CYWA 221814Z AUTO 10005KT 060V120 9SM FEW009 OVC015 20/19 A2994 =
2018-07-22 18:13 METAR CYWA 221813Z AUTO 09004KT 060V120 2 1/2SM FEW009 OVC015 19/18 A2994 RMK
                 VSBY VRBL 2.5V9.+ =
2018-07-22 18:02 METAR CYWA 221802Z AUTO 11003KT 080V140 2 1/4SM DZ FEW009 OVC015 18/18 A2995 =
2018-07-22 18:00 METAR CYWA 221800Z AUTO 10004KT 080V140 2 1/4SM DZ OVC009 18/18 A2995 RMK PCPN
                 0.5MM PAST HR SLP142 =
2018-07-22 17:59 METAR CYWA 221759Z AUTO 10004KT 080V140 2 1/2SM DZ OVC009 18/18 A2995 =
2018-07-22 17:53 METAR CYWA 221753Z AUTO 09006KT 4SM DZ OVC011 18/18 A2994 =
2018-07-22 17:46 METAR CYWA 221746Z AUTO 10007KT 070V130 3SM -RA OVC009 18/18 A2995 =
2018-07-22 17:40 METAR CYWA 221740Z AUTO 10007KT 3SM -RA FEW009 OVC012 18/18 A2995 =
2018-07-22 17:16 METAR CYWA 221716Z AUTO 10007KT 2 1/2SM -RA OVC011 OVC028 OVC036 18/17 A2995 RMK
                 VSBY VRBL 1.3V8.0 =
2018-07-22 17:02 METAR CYWA 221702Z AUTO 09005KT 050V110 5SM -RA OVC013 OVC036 OVC057 19/17 A2994
                 =
2018-07-22 17:00 METAR CYWA 221700Z AUTO 09005KT 050V130 2 1/2SM -RA BKN013 OVC036 OVC057 18/18
                 A2994 RMK VSBY VRBL 2.5V8.0 PCPN 1.0MM PAST HR SLP140 =
2018-07-22 16:53 METAR CYWA 221653Z AUTO 08005KT 050V130 2 1/4SM -RA BKN013 OVC041 OVC054 19/17
                 A2994 RMK VSBY VRBL 1.7V8.0 =
2018-07-22 16:40 METAR CYWA 221640Z AUTO 08008G15KT 050V110 1 1/4SM RA VV013 19/18 A2994 =
2018-07-22 16:35 METAR CYWA 221635Z AUTO 08010G15KT 050V110 2SM RA VV013 20/17 A2994 RMK VSBY
                 VRBL 0.7V9.0 =
2018-07-22 16:31 METAR CYWA 221631Z AUTO 08009KT 6SM -RA VV013 20/17 A2994 =
2018-07-22 16:15 METAR CYWA 221615Z AUTO 10007KT 9SM -RA OVC020 OVC057 21/17 A2994 =
2018-07-22 16:14 METAR CYWA 221614Z AUTO 10007KT 9SM OVC020 21/16 A2994 =
2018-07-22 16:13 METAR CYWA 221613Z AUTO 09007KT 9SM -DZ BKN020 BKN057 21/16 A2994 =
2018-07-22 16:08 METAR CYWA 221608Z AUTO 11007KT 9SM BKN018 OVC057 21/16 A2995 =
2018-07-22 16:00 METAR CYWA 221600Z AUTO 10008KT 080V140 9SM -RA OVC018 OVC051 OVC057 21/17 A2995
                 RMK SLP145 =
2018-07-22 15:41 METAR CYWA 221541Z AUTO 09009KT 060V130 9SM -RA OVC023 22/15 A2995 =
2018-07-22 15:33 METAR CYWA 221533Z AUTO 09008KT 060V120 9SM -RA OVC029 OVC069 22/14 A2995 =
2018-07-22 15:00 METAR CYWA 221500Z AUTO 11010KT 060V130 9SM OVC045 OVC067 OVC095 22/13 A2996 RMK
                 SLP147 =
2018-07-22 14:00 METAR CYWA 221400Z AUTO 11007KT 080V140 9SM FEW050 SCT061 SCT070 BKN076 22/14
                 A2997 RMK SLP148 =
2018-07-22 13:00 METAR CYWA 221300Z AUTO 05003KT 020V100 9SM CLR 21/15 A2995 RMK SLP143 =
2018-07-22 12:00 METAR CYWA 221200Z AUTO 00000KT 9SM FEW092 20/15 A2996 RMK SLP147 =
2018-07-22 11:00 METAR CYWA 221100Z AUTO 00000KT 9SM CLR 17/15 A2996 RMK SLP147 =
2018-07-22 10:00 METAR CYWA 221000Z AUTO 00000KT 9SM CLR 15/14 A2996 RMK SLP146 =
2018-07-22 09:00 METAR CYWA 220900Z AUTO 00000KT 9SM CLR 16/14 A2996 RMK SLP147 =
2018-07-22 08:00 METAR CYWA 220800Z AUTO 00000KT 9SM CLR 17/14 A2996 RMK SLP146 =
2018-07-22 07:00 METAR CYWA 220700Z AUTO 00000KT 9SM CLR 18/14 A2997 RMK SLP148 =

Support USWX by starting your Amazon purchase here.